Time;durP1;ratioP1;P1;durP2;ratioP2;P2;SDS_P1;SDS_P2;PMS_P1;PMS_P2;Temp;Humidity;BMP_temperature;BMP_pressure;BME280_temperature;BME280_humidity;BME280_pressure;Samples;Min_cycle;Max_cycle;Signal;HPM_P1;HPM_P2
2022/08/31 00:04:01;;;;;;;7.65;3.55;;;;;;;;;;5014996;28;20045;-71
2022/08/31 00:06:29;;;;;;;6.28;3.60;;;;;;;;;;5014887;28;20038;-71
2022/08/31 00:08:55;;;;;;;7.95;4.00;;;;;;;;;;5015903;28;20049;-70
2022/08/31 00:11:27;;;;;;;5.40;3.40;;;;;;;;;;5015370;28;20500;-70
2022/08/31 00:13:55;;;;;;;4.80;3.17;;;;;;;;;;5014924;28;20432;-71
2022/08/31 00:16:21;;;;;;;5.10;3.60;;;;;;;;;;5015311;28;20044;-71
2022/08/31 00:18:51;;;;;;;7.55;3.58;;;;;;;;;;5015365;28;20057;-70
2022/08/31 00:21:17;;;;;;;8.73;3.80;;;;;;;;;;5015249;28;20064;-70
2022/08/31 00:23:43;;;;;;;6.25;3.75;;;;;;;;;;5015135;28;20030;-70
2022/08/31 00:26:09;;;;;;;6.60;3.28;;;;;;;;;;5014915;28;20041;-70
2022/08/31 00:28:36;;;;;;;6.38;3.70;;;;;;;;;;5015158;28;20575;-70
2022/08/31 00:31:02;;;;;;;8.20;3.40;;;;;;;;;;5014796;28;20029;-70
2022/08/31 00:33:28;;;;;;;8.35;4.05;;;;;;;;;;5014884;28;20099;-70
2022/08/31 00:35:54;;;;;;;4.82;3.65;;;;;;;;;;5014767;28;20091;-70
2022/08/31 00:38:20;;;;;;;5.30;3.47;;;;;;;;;;5014760;28;20049;-70
2022/08/31 00:40:47;;;;;;;5.47;3.33;;;;;;;;;;5014847;28;20045;-70
2022/08/31 00:43:39;;;;;;;5.38;4.13;;;;;;;;;;5014869;28;20041;-71
2022/08/31 00:46:06;;;;;;;6.45;3.35;;;;;;;;;;4992074;28;20475;-70
2022/08/31 00:48:32;;;;;;;6.07;3.42;;;;;;;;;;5014576;28;20485;-71
2022/08/31 00:50:58;;;;;;;5.65;3.78;;;;;;;;;;5014634;28;20514;-70
2022/08/31 00:53:25;;;;;;;4.53;3.30;;;;;;;;;;5014917;28;20045;-70
2022/08/31 00:55:51;;;;;;;7.78;3.65;;;;;;;;;;5014798;28;20033;-70
2022/08/31 00:58:17;;;;;;;8.23;3.78;;;;;;;;;;5014745;28;20378;-70
2022/08/31 01:00:44;;;;;;;9.25;3.83;;;;;;;;;;5014790;28;20133;-70
2022/08/31 01:03:10;;;;;;;7.72;3.92;;;;;;;;;;5014546;28;20393;-70
2022/08/31 01:05:37;;;;;;;5.28;3.30;;;;;;;;;;5014753;28;20111;-70
2022/08/31 01:08:04;;;;;;;9.73;3.75;;;;;;;;;;5014809;28;20501;-70
2022/08/31 01:10:32;;;;;;;4.28;3.50;;;;;;;;;;5014700;28;20042;-70
2022/08/31 01:12:59;;;;;;;5.90;3.80;;;;;;;;;;5014453;28;20041;-70
2022/08/31 01:15:27;;;;;;;4.53;3.70;;;;;;;;;;5014668;28;20096;-70
2022/08/31 01:17:54;;;;;;;9.88;4.00;;;;;;;;;;5014728;28;20049;-70
2022/08/31 01:20:45;;;;;;;6.63;3.67;;;;;;;;;;5014543;28;20042;-70
2022/08/31 01:23:28;;;;;;;7.47;4.18;;;;;;;;;;5014357;28;20045;-70
2022/08/31 01:25:55;;;;;;;7.68;3.97;;;;;;;;;;5016575;28;20042;-70
2022/08/31 01:28:22;;;;;;;9.15;3.70;;;;;;;;;;5018418;28;20072;-70
2022/08/31 01:31:00;;;;;;;6.43;3.88;;;;;;;;;;5018297;28;20034;-70
2022/08/31 01:33:26;;;;;;;5.43;3.80;;;;;;;;;;5018251;28;20490;-70
2022/08/31 01:35:53;;;;;;;7.85;3.72;;;;;;;;;;5018183;28;20051;-70
2022/08/31 01:38:19;;;;;;;8.30;3.58;;;;;;;;;;5018234;28;20053;-70
2022/08/31 01:40:49;;;;;;;5.53;3.40;;;;;;;;;;5017760;28;20038;-70
2022/08/31 01:43:15;;;;;;;5.47;3.40;;;;;;;;;;5017895;28;20128;-70
2022/08/31 01:45:41;;;;;;;5.00;3.40;;;;;;;;;;5018134;28;20099;-70
2022/08/31 01:48:07;;;;;;;5.05;3.35;;;;;;;;;;5018264;28;20112;-70
2022/08/31 01:50:34;;;;;;;6.88;3.63;;;;;;;;;;5018198;28;20489;-70
2022/08/31 01:53:00;;;;;;;5.95;3.85;;;;;;;;;;5017828;28;20489;-70
2022/08/31 01:55:26;;;;;;;5.32;3.00;;;;;;;;;;5017524;28;20042;-71
2022/08/31 01:57:52;;;;;;;7.88;3.55;;;;;;;;;;5017837;28;20057;-70
2022/08/31 02:00:19;;;;;;;7.13;3.80;;;;;;;;;;5017515;28;20205;-70
2022/08/31 02:02:45;;;;;;;8.13;3.90;;;;;;;;;;5017412;28;20120;-70
2022/08/31 02:05:13;;;;;;;6.35;3.72;;;;;;;;;;5017348;28;20128;-70
2022/08/31 02:07:39;;;;;;;9.15;3.92;;;;;;;;;;5016812;28;20041;-70
2022/08/31 02:10:06;;;;;;;6.60;3.70;;;;;;;;;;5017620;28;20046;-70
2022/08/31 02:12:32;;;;;;;6.68;3.80;;;;;;;;;;5017052;28;20041;-70
2022/08/31 02:14:58;;;;;;;6.45;3.90;;;;;;;;;;5017120;28;20073;-70
2022/08/31 02:17:24;;;;;;;5.75;3.72;;;;;;;;;;5017497;28;20078;-70
2022/08/31 02:19:50;;;;;;;6.18;3.63;;;;;;;;;;5017552;28;20131;-70
2022/08/31 02:22:16;;;;;;;6.13;3.70;;;;;;;;;;5017093;28;20042;-70
2022/08/31 02:24:43;;;;;;;7.65;3.67;;;;;;;;;;5016958;28;20128;-70
2022/08/31 02:27:09;;;;;;;4.28;3.67;;;;;;;;;;5017561;28;20136;-70
2022/08/31 02:29:35;;;;;;;6.68;3.30;;;;;;;;;;5017080;28;20046;-70
2022/08/31 02:32:01;;;;;;;5.70;3.17;;;;;;;;;;5016897;28;20571;-70
2022/08/31 02:34:28;;;;;;;6.13;3.15;;;;;;;;;;5017050;28;20372;-70
2022/08/31 02:36:54;;;;;;;7.10;3.53;;;;;;;;;;5016479;28;20041;-70
2022/08/31 02:39:20;;;;;;;5.32;3.58;;;;;;;;;;5016451;28;20042;-70
2022/08/31 02:41:46;;;;;;;7.97;3.60;;;;;;;;;;5016679;28;20053;-70
2022/08/31 02:44:12;;;;;;;5.43;3.17;;;;;;;;;;5016493;28;20125;-70
2022/08/31 02:46:39;;;;;;;4.05;3.20;;;;;;;;;;5016812;28;20038;-70
2022/08/31 02:49:05;;;;;;;5.72;3.67;;;;;;;;;;5016220;28;20133;-70
2022/08/31 02:51:31;;;;;;;5.10;3.30;;;;;;;;;;5016436;28;20042;-70
2022/08/31 02:53:57;;;;;;;7.30;3.55;;;;;;;;;;5016092;28;20401;-70
2022/08/31 02:56:24;;;;;;;5.80;3.20;;;;;;;;;;5016144;28;20045;-70
2022/08/31 02:58:53;;;;;;;5.68;4.20;;;;;;;;;;5016318;28;20061;-70
2022/08/31 03:01:21;;;;;;;4.22;3.05;;;;;;;;;;5016377;28;20038;-70
2022/08/31 03:03:47;;;;;;;5.10;3.47;;;;;;;;;;5016541;28;20115;-70
2022/08/31 03:06:13;;;;;;;5.45;3.40;;;;;;;;;;5016474;28;20052;-70
2022/08/31 03:08:41;;;;;;;9.48;3.63;;;;;;;;;;5016681;28;20053;-70
2022/08/31 03:11:07;;;;;;;7.15;3.88;;;;;;;;;;5016621;28;20062;-70
2022/08/31 03:13:35;;;;;;;4.13;3.50;;;;;;;;;;5016416;28;20469;-70
2022/08/31 03:16:02;;;;;;;6.85;3.13;;;;;;;;;;5016249;28;20060;-70
2022/08/31 03:18:28;;;;;;;5.93;3.35;;;;;;;;;;5015765;28;20048;-70
2022/08/31 03:20:54;;;;;;;7.15;3.25;;;;;;;;;;5015939;28;20046;-70
2022/08/31 03:23:20;;;;;;;5.47;2.95;;;;;;;;;;5016206;28;20045;-70
2022/08/31 03:25:46;;;;;;;4.70;3.05;;;;;;;;;;5016254;28;20097;-70
2022/08/31 03:28:12;;;;;;;5.97;3.20;;;;;;;;;;5015588;28;20054;-70
2022/08/31 03:30:39;;;;;;;5.50;3.47;;;;;;;;;;5016332;28;20485;-70
2022/08/31 03:33:05;;;;;;;4.30;3.40;;;;;;;;;;5015959;28;20084;-70
2022/08/31 03:35:31;;;;;;;4.60;3.30;;;;;;;;;;5015796;28;20091;-70
2022/08/31 03:37:58;;;;;;;5.65;3.13;;;;;;;;;;5016576;28;20071;-70
2022/08/31 03:40:24;;;;;;;4.57;3.30;;;;;;;;;;5015924;28;20042;-70
2022/08/31 03:42:50;;;;;;;6.47;3.45;;;;;;;;;;5015772;28;20481;-70
2022/08/31 03:45:17;;;;;;;6.38;2.97;;;;;;;;;;5015799;28;20038;-70
2022/08/31 03:47:43;;;;;;;5.30;2.92;;;;;;;;;;5015499;28;20049;-70
2022/08/31 03:50:09;;;;;;;4.88;3.15;;;;;;;;;;5015373;28;20092;-70
2022/08/31 03:52:37;;;;;;;4.07;2.90;;;;;;;;;;5015657;28;20041;-70
2022/08/31 03:55:03;;;;;;;6.70;3.45;;;;;;;;;;5015332;28;20112;-70
2022/08/31 03:57:29;;;;;;;5.35;2.97;;;;;;;;;;5015181;28;20050;-71
2022/08/31 03:59:59;;;;;;;6.47;3.10;;;;;;;;;;5015306;28;20041;-71
2022/08/31 04:02:25;;;;;;;5.82;4.32;;;;;;;;;;5015236;28;20072;-70
2022/08/31 04:04:52;;;;;;;4.18;3.55;;;;;;;;;;5014906;28;20508;-71
2022/08/31 04:07:18;;;;;;;5.65;3.42;;;;;;;;;;5014875;28;20042;-70
2022/08/31 04:09:44;;;;;;;5.97;3.53;;;;;;;;;;5014966;28;20046;-71
2022/08/31 04:12:10;;;;;;;5.90;3.20;;;;;;;;;;5014707;28;20570;-70
2022/08/31 04:14:37;;;;;;;6.00;3.05;;;;;;;;;;5014720;28;20124;-70
2022/08/31 04:17:03;;;;;;;5.28;3.15;;;;;;;;;;5015651;28;20045;-70
2022/08/31 04:19:29;;;;;;;7.50;3.38;;;;;;;;;;5014975;28;20045;-70
2022/08/31 04:21:56;;;;;;;4.93;3.30;;;;;;;;;;5014963;28;20049;-70
2022/08/31 04:24:22;;;;;;;5.72;3.60;;;;;;;;;;5015447;28;20065;-70
2022/08/31 04:26:50;;;;;;;7.43;3.65;;;;;;;;;;5014589;28;20409;-70
2022/08/31 04:29:16;;;;;;;7.60;3.70;;;;;;;;;;5014564;28;20092;-71
2022/08/31 04:31:42;;;;;;;7.70;3.40;;;;;;;;;;5014503;28;20038;-71
2022/08/31 04:34:08;;;;;;;5.35;3.47;;;;;;;;;;5015600;28;20111;-70
2022/08/31 04:36:35;;;;;;;5.88;3.42;;;;;;;;;;5014397;28;20045;-71
2022/08/31 04:39:03;;;;;;;5.28;3.00;;;;;;;;;;5015341;28;20056;-71
2022/08/31 04:41:30;;;;;;;9.25;3.40;;;;;;;;;;5014651;28;20042;-71
2022/08/31 04:43:57;;;;;;;10.43;3.50;;;;;;;;;;5014586;28;20038;-70
2022/08/31 04:46:23;;;;;;;4.40;3.42;;;;;;;;;;5014367;28;20045;-70
2022/08/31 04:48:49;;;;;;;5.60;3.20;;;;;;;;;;5014657;28;20485;-70
2022/08/31 04:51:17;;;;;;;8.95;3.58;;;;;;;;;;5014637;28;20038;-71
2022/08/31 04:53:43;;;;;;;5.57;3.40;;;;;;;;;;5014916;28;20096;-71
2022/08/31 04:56:14;;;;;;;3.70;3.40;;;;;;;;;;5014578;28;20034;-71
2022/08/31 04:58:41;;;;;;;4.05;3.33;;;;;;;;;;5014845;28;20066;-71
2022/08/31 05:01:08;;;;;;;6.35;3.30;;;;;;;;;;5018471;28;20033;-71
2022/08/31 05:03:35;;;;;;;8.40;3.47;;;;;;;;;;5018584;28;20041;-71
2022/08/31 05:06:01;;;;;;;6.35;3.50;;;;;;;;;;5018683;28;20049;-71
2022/08/31 05:08:27;;;;;;;6.82;3.42;;;;;;;;;;5018386;28;20110;-71
2022/08/31 05:10:54;;;;;;;5.68;3.92;;;;;;;;;;5018695;28;20117;-71
2022/08/31 05:13:20;;;;;;;4.45;3.30;;;;;;;;;;5017933;28;20165;-71
2022/08/31 05:15:46;;;;;;;5.63;3.13;;;;;;;;;;5018406;28;20073;-71
2022/08/31 05:18:12;;;;;;;5.30;3.53;;;;;;;;;;5018570;28;20408;-71
2022/08/31 05:20:39;;;;;;;3.28;2.95;;;;;;;;;;5017855;28;20444;-71
2022/08/31 05:23:05;;;;;;;3.55;3.20;;;;;;;;;;5018183;28;20049;-70
2022/08/31 05:25:32;;;;;;;8.88;3.90;;;;;;;;;;5018108;28;20514;-71
2022/08/31 05:27:58;;;;;;;10.55;3.90;;;;;;;;;;5017944;28;20492;-71
2022/08/31 05:30:24;;;;;;;7.70;3.67;;;;;;;;;;5017733;28;20100;-71
2022/08/31 05:32:50;;;;;;;5.15;3.70;;;;;;;;;;5018018;28;20037;-71
2022/08/31 05:35:17;;;;;;;6.03;3.50;;;;;;;;;;5018020;28;20045;-70
2022/08/31 05:37:43;;;;;;;8.93;4.03;;;;;;;;;;5018193;28;20133;-71
2022/08/31 05:40:10;;;;;;;5.68;3.53;;;;;;;;;;5017785;28;20124;-71
2022/08/31 05:42:36;;;;;;;5.88;3.58;;;;;;;;;;5017593;28;20546;-71
2022/08/31 05:45:02;;;;;;;6.47;3.28;;;;;;;;;;5017970;28;20046;-71
2022/08/31 05:47:28;;;;;;;3.95;3.10;;;;;;;;;;5018108;28;20041;-71
2022/08/31 05:49:54;;;;;;;4.97;2.97;;;;;;;;;;5017527;28;20050;-71
2022/08/31 05:52:20;;;;;;;5.20;3.42;;;;;;;;;;5017941;28;20437;-71
2022/08/31 05:54:47;;;;;;;4.10;3.35;;;;;;;;;;5017304;28;20084;-71
2022/08/31 05:57:13;;;;;;;7.07;3.47;;;;;;;;;;5017973;28;20077;-70
2022/08/31 05:59:39;;;;;;;5.35;3.42;;;;;;;;;;5017835;28;20057;-71
2022/08/31 06:02:09;;;;;;;5.22;3.17;;;;;;;;;;5017769;28;20038;-70
2022/08/31 06:04:35;;;;;;;4.07;3.67;;;;;;;;;;5017944;28;20045;-71
2022/08/31 06:07:01;;;;;;;5.70;3.40;;;;;;;;;;5017719;28;20104;-71
2022/08/31 06:09:28;;;;;;;3.88;3.35;;;;;;;;;;5017118;28;20544;-71
2022/08/31 06:11:54;;;;;;;4.65;3.22;;;;;;;;;;5016488;28;20061;-71
2022/08/31 06:14:23;;;;;;;5.32;3.47;;;;;;;;;;5017295;28;20088;-71
2022/08/31 06:16:49;;;;;;;5.95;3.30;;;;;;;;;;5017141;28;20092;-71
2022/08/31 06:19:15;;;;;;;6.13;3.60;;;;;;;;;;5016916;28;20041;-71
2022/08/31 06:21:42;;;;;;;5.13;3.03;;;;;;;;;;5017055;28;20053;-71
2022/08/31 06:24:09;;;;;;;4.65;3.40;;;;;;;;;;5016778;28;20038;-71
2022/08/31 06:26:36;;;;;;;5.40;3.47;;;;;;;;;;5016656;28;20034;-71
2022/08/31 06:29:04;;;;;;;6.55;3.50;;;;;;;;;;5016212;28;20054;-71
2022/08/31 06:31:33;;;;;;;7.82;3.47;;;;;;;;;;5016835;28;20072;-71
2022/08/31 06:34:00;;;;;;;6.75;3.70;;;;;;;;;;5016906;28;20033;-71
2022/08/31 06:36:27;;;;;;;5.53;3.17;;;;;;;;;;5016809;28;20493;-71
2022/08/31 06:38:55;;;;;;;5.53;3.55;;;;;;;;;;5016841;28;20045;-71
2022/08/31 06:41:22;;;;;;;4.20;3.17;;;;;;;;;;5016613;28;20124;-71
2022/08/31 06:43:49;;;;;;;4.55;2.95;;;;;;;;;;5016244;28;20038;-71
2022/08/31 06:46:16;;;;;;;4.80;3.00;;;;;;;;;;5016344;28;20072;-71
2022/08/31 06:48:42;;;;;;;3.00;2.80;;;;;;;;;;5016821;28;20050;-71
2022/08/31 06:51:09;;;;;;;5.28;3.40;;;;;;;;;;5016246;28;20069;-71
2022/08/31 06:53:39;;;;;;;5.10;3.17;;;;;;;;;;5016175;28;20468;-71
2022/08/31 06:56:13;;;;;;;4.63;3.10;;;;;;;;;;5016254;28;20104;-71
2022/08/31 06:58:39;;;;;;;5.13;3.15;;;;;;;;;;5016560;28;20060;-71
2022/08/31 07:01:10;;;;;;;5.95;3.03;;;;;;;;;;5016512;28;20121;-71
2022/08/31 07:03:36;;;;;;;4.50;3.22;;;;;;;;;;5016733;28;20054;-71
2022/08/31 07:06:04;;;;;;;7.05;3.47;;;;;;;;;;5016287;28;20034;-71
2022/08/31 07:08:31;;;;;;;7.40;3.85;;;;;;;;;;5016498;28;20132;-71
2022/08/31 07:10:58;;;;;;;7.05;3.65;;;;;;;;;;5016744;28;20033;-71
2022/08/31 07:13:24;;;;;;;5.88;3.30;;;;;;;;;;5015925;28;20448;-71
2022/08/31 07:15:50;;;;;;;6.10;3.30;;;;;;;;;;5016258;28;20042;-70
2022/08/31 07:18:16;;;;;;;5.28;3.55;;;;;;;;;;5016375;28;20120;-71
2022/08/31 07:20:42;;;;;;;3.78;3.20;;;;;;;;;;5016267;28;20041;-71
2022/08/31 07:23:08;;;;;;;4.40;3.35;;;;;;;;;;5015816;28;20038;-71
2022/08/31 07:25:38;;;;;;;3.92;3.53;;;;;;;;;;5021610;28;20053;-71
2022/08/31 07:28:04;;;;;;;3.83;3.53;;;;;;;;;;5024737;28;20037;-71
2022/08/31 07:30:35;;;;;;;4.40;3.60;;;;;;;;;;5026500;28;20042;-71
2022/08/31 07:33:05;;;;;;;5.53;3.70;;;;;;;;;;5024398;28;20079;-71
2022/08/31 07:35:32;;;;;;;5.78;4.13;;;;;;;;;;5032095;28;20085;-71
2022/08/31 07:43:43;;;;;;;5.03;4.50;;;;;;;;;;5070661;28;20386;-71
2022/08/31 07:46:09;;;;;;;7.28;4.47;;;;;;;;;;5070788;28;20051;-71
2022/08/31 07:48:35;;;;;;;9.52;4.38;;;;;;;;;;5071857;28;20048;-71
2022/08/31 07:51:02;;;;;;;8.35;4.75;;;;;;;;;;5075439;28;20047;-71
2022/08/31 07:53:28;;;;;;;8.90;4.22;;;;;;;;;;5069879;28;20492;-71
2022/08/31 07:55:55;;;;;;;6.85;4.03;;;;;;;;;;5070984;28;20102;-72
2022/08/31 07:58:22;;;;;;;9.90;3.67;;;;;;;;;;5070662;28;20033;-72
2022/08/31 08:00:49;;;;;;;7.25;3.78;;;;;;;;;;5070360;28;20051;-71
2022/08/31 08:03:15;;;;;;;7.47;3.75;;;;;;;;;;5068857;28;20407;-71
2022/08/31 08:05:42;;;;;;;3.63;3.10;;;;;;;;;;5072261;28;20443;-72
2022/08/31 08:08:10;;;;;;;8.30;3.88;;;;;;;;;;5072384;28;20036;-71
2022/08/31 08:10:41;;;;;;;6.75;3.45;;;;;;;;;;5089629;28;20121;-71
2022/08/31 08:13:07;;;;;;;4.68;4.00;;;;;;;;;;5082811;28;20032;-72
2022/08/31 08:15:35;;;;;;;5.30;3.70;;;;;;;;;;5071232;28;20037;-72
2022/08/31 08:18:02;;;;;;;6.57;4.25;;;;;;;;;;5076934;28;20041;-71
2022/08/31 08:20:29;;;;;;;4.50;3.50;;;;;;;;;;5064014;28;20381;-75
2022/08/31 08:22:55;;;;;;;7.53;3.60;;;;;;;;;;5057963;28;20044;-71
2022/08/31 08:25:21;;;;;;;6.60;3.65;;;;;;;;;;5069717;28;20037;-74
2022/08/31 08:27:47;;;;;;;6.28;3.63;;;;;;;;;;5072882;28;20072;-74
2022/08/31 08:30:14;;;;;;;5.30;3.85;;;;;;;;;;5069081;28;20040;-72
2022/08/31 08:32:41;;;;;;;6.97;3.92;;;;;;;;;;5071252;28;20123;-74
2022/08/31 08:35:08;;;;;;;4.50;3.45;;;;;;;;;;5060649;28;20036;-74
2022/08/31 08:37:34;;;;;;;6.32;3.47;;;;;;;;;;5067748;28;20043;-74
2022/08/31 08:40:04;;;;;;;6.05;3.90;;;;;;;;;;5070332;28;20577;-74
2022/08/31 08:42:30;;;;;;;5.47;3.83;;;;;;;;;;5069247;28;20139;-75
2022/08/31 08:44:57;;;;;;;5.65;3.80;;;;;;;;;;5089697;28;20064;-75
2022/08/31 08:47:27;;;;;;;5.57;3.47;;;;;;;;;;5070120;28;20051;-73
2022/08/31 08:49:55;;;;;;;6.55;3.95;;;;;;;;;;5069644;28;20127;-75
2022/08/31 08:52:29;;;;;;;5.55;3.72;;;;;;;;;;5073051;28;20047;-75
2022/08/31 08:55:00;;;;;;;4.47;3.40;;;;;;;;;;5057000;28;20122;-76
2022/08/31 08:57:26;;;;;;;;;;;;;;;;;;5065003;28;20045;-74
2022/08/31 08:59:55;;;;;;;9.27;3.38;;;;;;;;;;5052997;28;19916;-77
2022/08/31 09:02:30;;;;;;;9.82;7.55;;;;;;;;;;5049543;28;20090;-74
2022/08/31 09:04:59;;;;;;;5.88;3.10;;;;;;;;;;5056373;28;20041;-74
2022/08/31 09:07:49;;;;;;;5.53;3.63;;;;;;;;;;5056619;28;20044;-74
2022/08/31 09:10:24;;;;;;;4.03;3.00;;;;;;;;;;5056580;28;20033;-74
2022/08/31 09:13:00;;;;;;;4.05;3.00;;;;;;;;;;5056334;28;20048;-74
2022/08/31 09:16:01;;;;;;;8.63;3.55;;;;;;;;;;5055830;28;20040;-74
2022/08/31 09:18:29;;;;;;;;;;;;;;;;;;5035056;28;20041;-74
2022/08/31 09:21:04;;;;;;;3.28;2.97;;;;;;;;;;5053554;28;19908;-75
2022/08/31 09:23:34;;;;;;;5.85;3.33;;;;;;;;;;5053286;28;20094;-75
2022/08/31 09:26:03;;;;;;;10.60;3.33;;;;;;;;;;5053081;28;20044;-75
2022/08/31 09:28:34;;;;;;;8.30;3.42;;;;;;;;;;5055808;28;20056;-75
2022/08/31 09:31:00;;;;;;;5.70;3.55;;;;;;;;;;5053415;28;20029;-76
2022/08/31 09:33:27;;;;;;;8.50;3.55;;;;;;;;;;5055769;28;20041;-76
2022/08/31 09:35:57;;;;;;;5.93;3.42;;;;;;;;;;5055941;28;20033;-75
2022/08/31 09:38:42;;;;;;;7.13;3.20;;;;;;;;;;5053789;28;20503;-75
2022/08/31 09:41:20;;;;;;;5.18;3.53;;;;;;;;;;5053945;28;20499;-73
2022/08/31 09:43:47;;;;;;;6.53;3.03;;;;;;;;;;5053072;28;20061;-74
2022/08/31 09:46:27;;;;;;;6.85;2.90;;;;;;;;;;5056252;28;20049;-74
2022/08/31 09:48:57;;;;;;;4.63;3.10;;;;;;;;;;5055282;28;20504;-74
2022/08/31 09:51:32;;;;;;;4.35;3.20;;;;;;;;;;5051723;28;20033;-72
2022/08/31 09:57:13;;;;;;;6.50;3.33;;;;;;;;;;5050350;28;20124;-73
2022/08/31 09:59:42;;;;;;;3.75;2.92;;;;;;;;;;5062768;28;20037;-74
2022/08/31 10:02:21;;;;;;;6.68;3.30;;;;;;;;;;5060997;28;20099;-73
2022/08/31 10:04:55;;;;;;;6.57;3.40;;;;;;;;;;5062140;28;20041;-74
2022/08/31 10:07:42;;;;;;;5.20;3.08;;;;;;;;;;5056206;28;20404;-74
2022/08/31 10:10:12;;;;;;;5.22;3.05;;;;;;;;;;5075563;28;20392;-76
2022/08/31 10:12:44;;;;;;;6.50;3.00;;;;;;;;;;5074154;28;20515;-76
2022/08/31 10:15:27;;;;;;;4.57;2.90;;;;;;;;;;5055519;28;20116;-75
2022/08/31 10:17:56;;;;;;;4.97;3.00;;;;;;;;;;5050255;28;20106;-75
2022/08/31 10:20:25;;;;;;;6.70;3.00;;;;;;;;;;5063348;28;20403;-74
2022/08/31 10:22:55;;;;;;;4.78;2.40;;;;;;;;;;5063628;28;20041;-74
2022/08/31 10:25:21;;;;;;;5.50;2.58;;;;;;;;;;5054419;28;20037;-74
2022/08/31 10:27:50;;;;;;;5.97;2.63;;;;;;;;;;5056715;28;20765;-74
2022/08/31 10:30:34;;;;;;;4.47;2.72;;;;;;;;;;5057863;28;20507;-73
2022/08/31 10:33:04;;;;;;;6.28;3.38;;;;;;;;;;5053264;28;20079;-73
2022/08/31 10:35:48;;;;;;;6.95;3.13;;;;;;;;;;5066615;28;20595;-74
2022/08/31 10:38:25;;;;;;;6.68;4.28;;;;;;;;;;5058270;28;20040;-74
2022/08/31 10:41:11;;;;;;;28.23;13.55;;;;;;;;;;5060430;28;20036;-73
2022/08/31 10:43:47;;;;;;;27.55;15.20;;;;;;;;;;5063351;28;20419;-73
2022/08/31 10:46:14;;;;;;;7.47;4.18;;;;;;;;;;5042375;28;20065;-75
2022/08/31 10:48:45;;;;;;;19.13;8.60;;;;;;;;;;5054709;28;20116;-73
2022/08/31 10:51:21;;;;;;;17.48;6.97;;;;;;;;;;5055556;28;20120;-71
2022/08/31 10:54:01;;;;;;;11.75;5.68;;;;;;;;;;5054820;28;20048;-69
2022/08/31 10:56:36;;;;;;;6.65;4.10;;;;;;;;;;5052397;28;20507;-73
2022/08/31 10:59:02;;;;;;;6.43;3.30;;;;;;;;;;5061423;28;20045;-70
2022/08/31 11:01:33;;;;;;;8.63;4.00;;;;;;;;;;5057503;28;20037;-72
2022/08/31 11:04:18;;;;;;;7.50;3.70;;;;;;;;;;5062335;28;20048;-71
2022/08/31 11:06:52;;;;;;;11.65;4.90;;;;;;;;;;5034910;28;20384;-73
2022/08/31 11:09:19;;;;;;;11.38;5.93;;;;;;;;;;5034536;28;20045;-72
2022/08/31 11:11:45;;;;;;;6.35;4.25;;;;;;;;;;5050712;28;20037;-70
2022/08/31 11:14:17;;;;;;;7.53;3.92;;;;;;;;;;5052931;28;20072;-72
2022/08/31 11:16:55;;;;;;;6.40;3.35;;;;;;;;;;5056826;28;20043;-73
2022/08/31 11:19:36;;;;;;;6.18;3.58;;;;;;;;;;5052294;28;20037;-71
2022/08/31 11:22:33;;;;;;;10.43;3.75;;;;;;;;;;5053596;28;20564;-71
2022/08/31 11:25:02;;;;;;;6.68;2.58;;;;;;;;;;5053827;28;20134;-71
2022/08/31 11:27:35;;;;;;;3.85;2.60;;;;;;;;;;5054342;28;20403;-75
2022/08/31 11:30:06;;;;;;;2.50;2.30;;;;;;;;;;5050774;28;20123;-73
2022/08/31 11:32:38;;;;;;;6.65;2.60;;;;;;;;;;5053652;28;20484;-74
2022/08/31 11:35:09;;;;;;;3.70;2.53;;;;;;;;;;5053446;28;20041;-73
2022/08/31 11:37:54;;;;;;;2.67;2.13;;;;;;;;;;5052807;28;20106;-71
2022/08/31 11:40:42;;;;;;;4.28;2.90;;;;;;;;;;5052405;28;20106;-72
2022/08/31 11:43:34;;;;;;;7.35;2.85;;;;;;;;;;5050654;28;20114;-73
2022/08/31 11:46:28;;;;;;;4.85;3.65;;;;;;;;;;5052083;28;20049;-71
2022/08/31 11:48:55;;;;;;;6.25;3.78;;;;;;;;;;5052331;28;20523;-73
2022/08/31 11:51:39;;;;;;;4.20;3.38;;;;;;;;;;5052512;28;20063;-73
2022/08/31 11:54:40;;;;;;;6.10;3.33;;;;;;;;;;5050928;28;20045;-73
2022/08/31 11:57:14;;;;;;;6.80;3.95;;;;;;;;;;5050626;28;20041;-74
2022/08/31 11:59:45;;;;;;;5.35;3.15;;;;;;;;;;5052145;28;20151;-74
2022/08/31 12:02:10;;;;;;;;;;;;;;;;;;5053677;28;20044;-73
2022/08/31 12:04:57;;;;;;;4.50;2.90;;;;;;;;;;5053428;28;19982;-72
2022/08/31 12:07:31;;;;;;;5.53;2.90;;;;;;;;;;5050908;28;20045;-73
2022/08/31 12:10:17;;;;;;;6.65;3.50;;;;;;;;;;5057566;28;20047;-72
2022/08/31 12:12:51;;;;;;;5.45;3.53;;;;;;;;;;5028780;28;20405;-69
2022/08/31 12:15:40;;;;;;;16.40;3.95;;;;;;;;;;5060802;28;20077;-71
2022/08/31 12:18:07;;;;;;;4.70;2.72;;;;;;;;;;5069137;28;20075;-71
2022/08/31 12:20:33;;;;;;;3.45;2.63;;;;;;;;;;5064264;28;20053;-70
2022/08/31 12:26:06;;;;;;;3.28;2.88;;;;;;;;;;5049390;28;20079;-72
2022/08/31 12:28:35;;;;;;;3.00;2.38;;;;;;;;;;5055196;28;20384;-71
2022/08/31 12:31:04;;;;;;;2.95;2.42;;;;;;;;;;5058131;28;20044;-71
2022/08/31 12:33:31;;;;;;;3.28;2.58;;;;;;;;;;5059565;28;20064;-71
2022/08/31 12:36:12;;;;;;;3.40;2.45;;;;;;;;;;5061386;28;20491;-72
2022/08/31 12:38:39;;;;;;;6.47;2.85;;;;;;;;;;5055865;28;20045;-71
2022/08/31 12:41:05;;;;;;;3.97;2.53;;;;;;;;;;5052155;28;20048;-73
2022/08/31 12:43:39;;;;;;;8.65;7.78;;;;;;;;;;5055998;28;20151;-72
2022/08/31 12:46:05;;;;;;;13.93;11.85;;;;;;;;;;5057731;28;20049;-72
2022/08/31 12:48:34;;;;;;;4.25;3.85;;;;;;;;;;5055155;28;20045;-72
2022/08/31 12:51:26;;;;;;;5.68;3.05;;;;;;;;;;5053857;28;20037;-72
2022/08/31 12:54:04;;;;;;;4.47;3.08;;;;;;;;;;5047293;28;20076;-72
2022/08/31 12:56:47;;;;;;;8.32;3.70;;;;;;;;;;5055798;28;20060;-72
2022/08/31 12:59:19;;;;;;;5.78;3.10;;;;;;;;;;5055933;28;20119;-72
2022/08/31 13:01:48;;;;;;;4.80;3.50;;;;;;;;;;5055368;28;20080;-71
2022/08/31 13:04:15;;;;;;;6.82;3.70;;;;;;;;;;5055661;28;20127;-72
2022/08/31 13:06:43;;;;;;;6.70;3.88;;;;;;;;;;5057118;28;20029;-72
2022/08/31 13:09:23;;;;;;;7.35;3.53;;;;;;;;;;5056698;28;20488;-72
2022/08/31 13:11:51;;;;;;;7.27;3.47;;;;;;;;;;5057597;28;20048;-73
2022/08/31 13:14:23;;;;;;;6.13;3.10;;;;;;;;;;5053809;28;20104;-72
2022/08/31 13:16:54;;;;;;;6.32;3.88;;;;;;;;;;5055525;28;20048;-72
2022/08/31 13:19:24;;;;;;;5.75;3.40;;;;;;;;;;5057244;28;20059;-73
2022/08/31 13:21:55;;;;;;;3.95;3.25;;;;;;;;;;5054728;28;20647;-73
2022/08/31 13:24:27;;;;;;;5.22;3.50;;;;;;;;;;5054619;28;20037;-73
2022/08/31 13:27:12;;;;;;;7.05;3.40;;;;;;;;;;5055768;28;20048;-74
2022/08/31 13:29:45;;;;;;;3.30;3.00;;;;;;;;;;5052924;28;20498;-73
2022/08/31 13:32:13;;;;;;;3.17;2.85;;;;;;;;;;5073633;28;20521;-73
2022/08/31 13:34:42;;;;;;;7.22;3.70;;;;;;;;;;5069905;28;20036;-73
2022/08/31 13:37:15;;;;;;;4.40;3.38;;;;;;;;;;5058453;28;20040;-73
2022/08/31 13:39:44;;;;;;;6.75;3.28;;;;;;;;;;5051896;28;20035;-72
2022/08/31 13:42:23;;;;;;;3.88;3.22;;;;;;;;;;5056280;28;20053;-71
2022/08/31 13:45:09;;;;;;;4.57;3.63;;;;;;;;;;5059643;28;20048;-73
2022/08/31 13:47:37;;;;;;;7.40;3.40;;;;;;;;;;5052123;28;20141;-73
2022/08/31 13:50:15;;;;;;;5.93;3.42;;;;;;;;;;5053789;28;20102;-74
2022/08/31 13:52:57;;;;;;;7.10;4.07;;;;;;;;;;5053313;28;20126;-72
2022/08/31 13:55:34;;;;;;;6.70;4.03;;;;;;;;;;5054908;28;20034;-72
2022/08/31 13:58:21;;;;;;;6.07;4.20;;;;;;;;;;5055619;28;20162;-72
2022/08/31 14:00:54;;;;;;;9.90;4.43;;;;;;;;;;5059921;28;20530;-72
2022/08/31 14:03:44;;;;;;;5.47;4.25;;;;;;;;;;5052752;28;20075;-72
2022/08/31 14:06:23;;;;;;;7.03;4.50;;;;;;;;;;5054363;28;20044;-72
2022/08/31 14:08:55;;;;;;;6.57;4.18;;;;;;;;;;5050309;28;20871;-72
2022/08/31 14:11:25;;;;;;;6.15;3.95;;;;;;;;;;5054069;28;20071;-72
2022/08/31 14:13:51;;;;;;;7.85;4.82;;;;;;;;;;5054018;28;20041;-72
2022/08/31 14:16:33;;;;;;;6.90;4.18;;;;;;;;;;5055386;28;20048;-73
2022/08/31 14:18:59;;;;;;;6.22;3.95;;;;;;;;;;5055250;28;20132;-73
2022/08/31 14:21:27;;;;;;;5.20;4.70;;;;;;;;;;5052334;28;20124;-74
2022/08/31 14:23:59;;;;;;;7.00;4.55;;;;;;;;;;5060697;28;21320;-74
2022/08/31 14:26:27;;;;;;;7.97;4.95;;;;;;;;;;5051286;28;20091;-73
2022/08/31 14:28:59;;;;;;;11.75;4.97;;;;;;;;;;5061095;28;20037;-75
2022/08/31 14:31:51;;;;;;;11.40;4.93;;;;;;;;;;5054403;28;20081;-74
2022/08/31 14:34:22;;;;;;;18.10;5.53;;;;;;;;;;5051447;28;20129;-72
2022/08/31 14:37:06;;;;;;;24.90;5.63;;;;;;;;;;5054043;28;20033;-72
2022/08/31 14:39:36;;;;;;;16.75;4.70;;;;;;;;;;5042381;28;20115;-70
2022/08/31 14:42:05;;;;;;;9.55;4.30;;;;;;;;;;5054235;28;20053;-72
2022/08/31 14:44:32;;;;;;;5.93;4.10;;;;;;;;;;5054410;28;20047;-72
2022/08/31 14:46:59;;;;;;;4.60;3.92;;;;;;;;;;5055974;28;20036;-71
2022/08/31 14:49:27;;;;;;;5.80;4.10;;;;;;;;;;5054791;28;20032;-72
2022/08/31 14:52:03;;;;;;;5.60;3.78;;;;;;;;;;5060348;28;20127;-72
2022/08/31 14:54:33;;;;;;;6.25;4.35;;;;;;;;;;5052990;28;20029;-73
2022/08/31 14:57:01;;;;;;;9.07;4.68;;;;;;;;;;5054048;28;20045;-73
2022/08/31 14:59:27;;;;;;;14.85;4.65;;;;;;;;;;5062425;28;20063;-73
2022/08/31 15:01:56;;;;;;;8.90;4.00;;;;;;;;;;5056512;28;20055;-72
2022/08/31 15:04:24;;;;;;;10.15;4.55;;;;;;;;;;5053696;28;20040;-72
2022/08/31 15:06:58;;;;;;;10.32;4.40;;;;;;;;;;5060433;28;20593;-74
2022/08/31 15:09:24;;;;;;;5.20;4.28;;;;;;;;;;5060996;28;20083;-73
2022/08/31 15:11:50;;;;;;;7.93;4.95;;;;;;;;;;5062997;28;20430;-74
2022/08/31 15:14:16;;;;;;;9.18;4.43;;;;;;;;;;5054303;28;20035;-75